createdAt,value
2017-10-10T00:01:08.226Z,19.83
2017-10-10T00:03:35.762Z,8.40
2017-10-10T00:06:03.283Z,10.77
2017-10-10T00:08:31.031Z,9.50
2017-10-10T00:10:58.576Z,10.00
2017-10-10T00:13:26.237Z,16.00
2017-10-10T00:15:54.002Z,10.55
2017-10-10T00:18:21.560Z,10.85
2017-10-10T00:20:49.121Z,11.63
2017-10-10T00:23:16.987Z,10.95
2017-10-10T00:25:44.553Z,11.82
2017-10-10T00:28:12.105Z,11.27
2017-10-10T00:30:40.073Z,18.00
2017-10-10T00:33:07.632Z,9.85
2017-10-10T00:35:35.192Z,10.65
2017-10-10T00:38:03.038Z,12.80
2017-10-10T00:40:30.550Z,13.98
2017-10-10T00:42:58.075Z,8.38
2017-10-10T00:45:25.815Z,13.50
2017-10-10T00:47:53.328Z,9.57
2017-10-10T00:50:20.871Z,16.25
2017-10-10T00:52:48.420Z,9.68
2017-10-10T00:55:15.927Z,9.15
2017-10-10T00:57:43.444Z,9.95
2017-10-10T01:00:11.397Z,9.95
2017-10-10T01:02:38.956Z,10.80
2017-10-10T01:05:06.466Z,12.63
2017-10-10T01:07:34.140Z,14.52
2017-10-10T01:10:01.659Z,12.05
2017-10-10T01:12:29.195Z,19.42
2017-10-10T01:14:57.039Z,10.07
2017-10-10T01:17:24.559Z,13.32
2017-10-10T01:19:52.088Z,10.48
2017-10-10T01:22:19.736Z,13.15
2017-10-10T01:24:47.271Z,13.40
2017-10-10T01:27:14.789Z,12.70
2017-10-10T01:29:42.570Z,13.75
2017-10-10T01:32:10.099Z,15.55
2017-10-10T01:34:37.633Z,14.02
2017-10-10T01:37:05.398Z,15.05
2017-10-10T01:39:32.938Z,15.55
2017-10-10T01:42:00.454Z,17.15
2017-10-10T01:44:28.178Z,21.67
2017-10-10T01:46:55.736Z,14.25
2017-10-10T01:49:23.247Z,17.20
2017-10-10T01:51:50.956Z,15.88
2017-10-10T01:54:18.471Z,18.10
2017-10-10T01:56:45.986Z,14.55
2017-10-10T01:59:13.551Z,12.35
2017-10-10T02:01:41.091Z,14.05
2017-10-10T02:04:08.651Z,11.60
2017-10-10T02:06:36.209Z,11.55
2017-10-10T02:09:03.754Z,17.83
2017-10-10T02:11:31.332Z,17.60
2017-10-10T02:13:59.295Z,14.87
2017-10-10T02:16:26.866Z,12.90
2017-10-10T02:18:54.432Z,10.32
2017-10-10T02:21:22.163Z,16.62
2017-10-10T02:23:49.736Z,14.65
2017-10-10T02:26:17.256Z,13.05
2017-10-10T02:28:45.162Z,12.95
2017-10-10T02:31:12.721Z,15.60
2017-10-10T02:33:40.281Z,13.70
2017-10-10T02:36:08.122Z,13.90
2017-10-10T02:38:35.639Z,15.77
2017-10-10T02:41:03.165Z,12.60
2017-10-10T02:43:30.926Z,12.35
2017-10-10T02:45:58.488Z,14.38
2017-10-10T02:48:26.053Z,18.48
2017-10-10T02:50:53.894Z,14.82
2017-10-10T02:53:21.406Z,13.13
2017-10-10T02:55:49.028Z,12.85
2017-10-10T02:58:16.585Z,17.65
2017-10-10T03:00:44.150Z,17.62
2017-10-10T03:03:11.706Z,17.27
2017-10-10T03:05:39.446Z,15.73
2017-10-10T03:08:06.967Z,12.05
2017-10-10T03:10:34.486Z,15.70
2017-10-10T03:13:02.186Z,17.98
2017-10-10T03:15:29.707Z,17.20
2017-10-10T03:17:57.267Z,13.70
2017-10-10T03:20:25.028Z,14.85
2017-10-10T03:22:52.589Z,11.18
2017-10-10T03:25:20.106Z,13.20
2017-10-10T03:27:48.833Z,12.75
2017-10-10T03:30:16.352Z,15.50
2017-10-10T03:32:43.868Z,22.80
2017-10-10T03:35:11.618Z,11.77
2017-10-10T03:37:39.139Z,12.37
2017-10-10T03:40:06.667Z,14.43
2017-10-10T03:42:34.315Z,12.10
2017-10-10T03:45:01.835Z,28.70
2017-10-10T03:47:29.374Z,13.60
2017-10-10T03:49:57.274Z,11.15
2017-10-10T03:52:24.835Z,12.93
2017-10-10T03:54:52.401Z,15.07
2017-10-10T03:57:20.157Z,10.50
2017-10-10T03:59:47.679Z,13.57
2017-10-10T04:02:15.186Z,21.55
2017-10-10T04:04:42.836Z,17.12
2017-10-10T04:07:10.359Z,18.85
2017-10-10T04:09:37.867Z,12.45
2017-10-10T04:12:05.723Z,11.57
2017-10-10T04:14:33.243Z,13.35
2017-10-10T04:17:00.754Z,13.52
2017-10-10T04:19:28.578Z,14.20
2017-10-10T04:21:56.261Z,22.48
2017-10-10T04:24:23.821Z,14.87
2017-10-10T04:26:51.562Z,15.05
2017-10-10T04:29:19.084Z,14.63
2017-10-10T04:31:46.600Z,12.43
2017-10-10T04:34:14.546Z,13.48
2017-10-10T04:36:42.058Z,16.73
2017-10-10T04:39:09.591Z,14.13
2017-10-10T04:41:37.347Z,14.57
2017-10-10T04:44:04.905Z,16.55
2017-10-10T04:46:32.467Z,15.77
2017-10-10T04:49:00.202Z,15.48
2017-10-10T04:51:27.723Z,14.90
2017-10-10T04:53:55.255Z,14.25
2017-10-10T04:56:23.114Z,22.25
2017-10-10T04:58:50.631Z,15.10
2017-10-10T05:01:18.142Z,12.20
2017-10-10T05:03:45.818Z,15.82
2017-10-10T05:06:13.347Z,15.48
2017-10-10T05:08:40.907Z,14.60
2017-10-10T05:11:08.474Z,21.58
2017-10-10T05:13:36.024Z,26.20
2017-10-10T05:16:03.585Z,15.27
2017-10-10T05:18:31.326Z,14.38
2017-10-10T05:20:58.844Z,17.90
2017-10-10T05:23:26.363Z,15.52
2017-10-10T05:25:53.931Z,18.27
2017-10-10T05:28:21.446Z,13.45
2017-10-10T05:30:48.971Z,14.40
2017-10-10T05:33:16.804Z,13.27
2017-10-10T05:35:44.365Z,14.35
2017-10-10T05:38:11.922Z,12.32
2017-10-10T05:40:39.688Z,12.70
2017-10-10T05:43:07.246Z,12.73
2017-10-10T05:45:34.805Z,10.27
2017-10-10T05:48:02.373Z,10.40
2017-10-10T05:50:29.924Z,10.55
2017-10-10T05:52:57.442Z,12.05
2017-10-10T05:55:25.254Z,11.80
2017-10-10T05:57:52.771Z,14.75
2017-10-10T06:00:20.291Z,8.68
2017-10-10T06:02:48.032Z,14.32
2017-10-10T06:05:15.583Z,10.38
2017-10-10T06:07:43.111Z,10.52
2017-10-10T06:10:10.703Z,10.18
2017-10-10T06:12:39.110Z,13.05
2017-10-10T06:15:06.634Z,10.90
2017-10-10T06:17:34.200Z,8.27
2017-10-10T06:20:01.758Z,9.32
2017-10-10T06:22:29.317Z,11.77
2017-10-10T06:24:57.161Z,11.55
2017-10-10T06:27:24.683Z,10.75
2017-10-10T06:29:52.204Z,5.22
2017-10-10T06:32:19.935Z,8.98
2017-10-10T06:34:47.467Z,11.65
2017-10-10T06:37:14.995Z,8.98
2017-10-10T06:39:42.718Z,8.77
2017-10-10T06:42:10.239Z,7.30
2017-10-10T06:44:37.763Z,8.95
2017-10-10T06:47:05.330Z,15.25
2017-10-10T06:49:32.876Z,12.18
2017-10-10T06:52:00.437Z,11.07
2017-10-10T06:54:28.301Z,15.38
2017-10-10T06:56:56.066Z,10.10
2017-10-10T06:59:23.626Z,6.75
2017-10-10T07:01:51.288Z,12.70
2017-10-10T07:04:18.852Z,11.85
2017-10-10T07:06:46.404Z,7.62
2017-10-10T07:09:14.148Z,6.87
2017-10-10T07:11:41.662Z,7.03
2017-10-10T07:14:09.186Z,8.95
2017-10-10T07:16:36.847Z,9.70
2017-10-10T07:19:04.414Z,9.57
2017-10-10T07:21:32.067Z,7.22
2017-10-10T07:23:59.814Z,11.43
2017-10-10T07:26:27.322Z,8.53
2017-10-10T07:28:54.850Z,6.97
2017-10-10T07:31:22.414Z,9.07
2017-10-10T07:33:49.964Z,8.77
2017-10-10T07:36:17.476Z,12.40
2017-10-10T07:38:45.288Z,9.75
2017-10-10T07:41:12.891Z,5.50
2017-10-10T07:43:40.422Z,9.20
2017-10-10T07:46:08.271Z,9.50
2017-10-10T07:48:35.833Z,7.70
2017-10-10T07:51:03.390Z,6.87
2017-10-10T07:53:31.382Z,7.97
2017-10-10T07:55:58.943Z,9.47
2017-10-10T07:58:26.451Z,7.40
2017-10-10T08:00:54.215Z,7.83
2017-10-10T08:03:21.800Z,8.10
2017-10-10T08:05:49.360Z,7.87
2017-10-10T08:08:17.202Z,8.53
2017-10-10T08:10:44.716Z,8.80
2017-10-10T08:13:12.246Z,11.07
2017-10-10T08:15:40.186Z,11.30
2017-10-10T08:18:07.696Z,6.80
2017-10-10T08:20:35.215Z,5.73
2017-10-10T08:23:02.768Z,8.03
2017-10-10T08:25:30.279Z,6.87
2017-10-10T08:27:57.800Z,9.27
2017-10-10T08:30:25.677Z,15.73
2017-10-10T08:32:53.207Z,7.00
2017-10-10T08:35:20.715Z,8.13
2017-10-10T08:37:48.456Z,10.60
2017-10-10T08:40:16.005Z,10.80
2017-10-10T08:42:43.565Z,13.53
2017-10-10T08:45:11.329Z,11.03
2017-10-10T08:47:38.847Z,7.60
2017-10-10T08:50:06.360Z,6.70
2017-10-10T08:52:34.108Z,7.23
2017-10-10T08:55:01.685Z,5.13
2017-10-10T08:57:29.192Z,8.60
2017-10-10T08:59:57.072Z,6.23
2017-10-10T09:02:24.644Z,6.67
2017-10-10T09:04:52.162Z,11.80
2017-10-10T09:07:19.994Z,20.83
2017-10-10T09:09:47.519Z,10.20
2017-10-10T09:12:15.046Z,16.13
2017-10-10T09:14:42.595Z,11.17
2017-10-10T09:17:10.133Z,6.77
2017-10-10T09:19:37.667Z,8.80
2017-10-10T09:22:05.448Z,7.10
2017-10-10T09:24:32.990Z,14.07
2017-10-10T09:27:00.565Z,14.40
2017-10-10T09:29:28.223Z,10.13
2017-10-10T09:31:55.730Z,6.87
2017-10-10T09:34:24.249Z,7.90
2017-10-10T09:36:51.894Z,9.20
2017-10-10T09:39:19.410Z,8.10
2017-10-10T09:41:46.928Z,9.50
2017-10-10T09:44:14.780Z,4.23
2017-10-10T09:46:42.352Z,7.80
2017-10-10T09:49:09.866Z,8.67
2017-10-10T09:51:38.291Z,7.53
2017-10-10T09:54:05.854Z,9.73
2017-10-10T09:56:33.412Z,7.83
2017-10-10T09:59:00.967Z,8.10
2017-10-10T10:01:28.475Z,5.47
2017-10-10T10:03:57.011Z,7.90
2017-10-10T10:06:25.124Z,4.77
2017-10-10T10:08:52.978Z,5.70
2017-10-10T10:11:20.505Z,4.60
2017-10-10T10:13:48.067Z,9.63
2017-10-10T10:16:15.624Z,12.17
2017-10-10T10:18:43.130Z,4.63
2017-10-10T10:21:10.675Z,6.73
2017-10-10T10:23:38.282Z,4.93
2017-10-10T10:26:05.798Z,3.07
2017-10-10T10:28:33.530Z,2.77
2017-10-10T10:31:01.081Z,5.00
2017-10-10T10:33:28.589Z,3.83
2017-10-10T10:35:56.284Z,10.90
2017-10-10T10:38:23.795Z,5.20
2017-10-10T10:40:51.316Z,2.60
2017-10-10T10:43:19.083Z,7.53
2017-10-10T10:45:46.591Z,8.00
2017-10-10T10:48:14.108Z,2.80
2017-10-10T10:50:41.839Z,3.20
2017-10-10T10:53:09.359Z,8.57
2017-10-10T10:55:36.866Z,2.07
2017-10-10T10:58:04.502Z,2.80
2017-10-10T11:00:32.011Z,3.50
2017-10-10T11:02:59.553Z,8.50
2017-10-10T11:05:27.257Z,7.20
2017-10-10T11:07:54.774Z,4.80
2017-10-10T11:10:22.285Z,3.37
2017-10-10T11:12:50.008Z,3.77
2017-10-10T11:15:17.554Z,2.73
2017-10-10T11:17:45.114Z,2.60
2017-10-10T11:20:12.880Z,4.47
2017-10-10T11:22:40.437Z,3.47
2017-10-10T11:25:07.961Z,2.50
2017-10-10T11:27:35.757Z,3.10
2017-10-10T11:30:03.271Z,4.90
2017-10-10T11:32:30.778Z,7.83
2017-10-10T11:34:58.437Z,2.00
2017-10-10T11:37:25.951Z,2.13
2017-10-10T11:39:53.556Z,2.13
2017-10-10T11:42:21.319Z,4.67
2017-10-10T11:44:48.879Z,2.80
2017-10-10T11:47:16.437Z,4.03
2017-10-10T11:49:44.008Z,2.27
2017-10-10T11:52:11.554Z,2.43
2017-10-10T11:54:39.116Z,4.30
2017-10-10T11:57:06.980Z,7.80
2017-10-10T11:59:34.540Z,2.23
2017-10-10T12:02:02.099Z,2.67
2017-10-10T12:04:29.843Z,2.67
2017-10-10T12:06:57.358Z,2.63
2017-10-10T12:09:24.983Z,7.67
2017-10-10T12:11:52.719Z,2.13
2017-10-10T12:14:20.230Z,5.00
2017-10-10T12:16:47.862Z,4.80
2017-10-10T12:19:15.826Z,2.27
2017-10-10T12:21:43.338Z,5.40
2017-10-10T12:24:10.853Z,2.73
2017-10-10T12:26:38.400Z,6.13
2017-10-10T12:29:05.963Z,4.03
2017-10-10T12:31:33.526Z,7.30
2017-10-10T12:34:01.099Z,9.67
2017-10-10T12:36:28.644Z,4.20
2017-10-10T12:38:56.152Z,4.97
2017-10-10T12:41:23.864Z,4.23
2017-10-10T12:43:52.344Z,3.53
2017-10-10T12:46:19.851Z,8.83
2017-10-10T12:48:47.667Z,6.80
2017-10-10T12:51:15.226Z,3.20
2017-10-10T12:53:42.737Z,8.00
2017-10-10T12:56:10.651Z,5.20
2017-10-10T12:58:38.159Z,4.00
2017-10-10T13:01:05.675Z,7.10
2017-10-10T13:03:33.230Z,10.33
2017-10-10T13:06:00.795Z,6.53
2017-10-10T13:08:28.302Z,8.97
2017-10-10T13:10:56.220Z,4.10
2017-10-10T13:13:23.739Z,4.83
2017-10-10T13:15:51.255Z,6.10
2017-10-10T13:18:18.970Z,5.13
2017-10-10T13:20:46.652Z,7.47
2017-10-10T13:23:14.165Z,4.20
2017-10-10T13:25:41.723Z,3.87
2017-10-10T13:28:09.234Z,6.60
2017-10-10T13:30:36.742Z,6.00
2017-10-10T13:33:04.523Z,5.30
2017-10-10T13:35:32.035Z,6.20
2017-10-10T13:37:59.586Z,8.70
2017-10-10T13:40:27.139Z,4.43
2017-10-10T13:42:54.689Z,6.43
2017-10-10T13:45:22.245Z,4.87
2017-10-10T13:47:50.108Z,3.90
2017-10-10T13:50:17.669Z,8.23
2017-10-10T13:52:45.324Z,5.00
2017-10-10T13:55:13.102Z,8.03
2017-10-10T13:57:40.654Z,6.37
2017-10-10T14:00:08.227Z,7.27
2017-10-10T14:02:36.292Z,8.10
2017-10-10T14:05:04.024Z,8.23
2017-10-10T14:07:31.616Z,14.07
2017-10-10T14:09:59.450Z,5.00
2017-10-10T14:12:27.146Z,5.20
2017-10-10T14:14:54.656Z,5.97
2017-10-10T14:17:22.323Z,4.17
2017-10-10T14:19:49.844Z,3.23
2017-10-10T14:22:17.363Z,3.77
2017-10-10T14:24:45.118Z,7.60
2017-10-10T14:27:12.632Z,10.33
2017-10-10T14:29:40.252Z,5.17
2017-10-10T14:32:08.428Z,5.13
2017-10-10T14:34:36.003Z,3.70
2017-10-10T14:37:03.528Z,4.97
2017-10-10T14:39:31.617Z,3.50
2017-10-10T14:41:59.277Z,3.20
2017-10-10T14:44:26.904Z,2.40
2017-10-10T14:46:54.480Z,6.13
2017-10-10T14:49:22.000Z,3.70
2017-10-10T14:51:49.514Z,7.37
2017-10-10T14:54:17.290Z,2.73
2017-10-10T14:56:44.865Z,3.30
2017-10-10T14:59:12.382Z,9.03
2017-10-10T15:01:40.057Z,11.30
2017-10-10T15:04:07.627Z,6.33
2017-10-10T15:06:35.173Z,5.70
2017-10-10T15:09:02.819Z,4.20
2017-10-10T15:11:30.359Z,3.70
2017-10-10T15:13:57.955Z,4.20
2017-10-10T15:16:25.702Z,3.00
2017-10-10T15:18:53.278Z,22.27
2017-10-10T15:21:20.842Z,4.60
2017-10-10T15:23:48.387Z,8.67
2017-10-10T15:26:15.907Z,11.60
2017-10-10T15:28:43.418Z,3.73
2017-10-10T15:31:11.277Z,6.40
2017-10-10T15:33:39.962Z,8.77
2017-10-10T15:36:07.479Z,5.73
2017-10-10T15:38:35.472Z,2.90
2017-10-10T15:41:02.988Z,2.30
2017-10-10T15:43:30.553Z,4.47
2017-10-10T15:45:58.183Z,4.00
2017-10-10T15:48:25.727Z,4.30
2017-10-10T15:50:53.246Z,3.63
2017-10-10T15:53:20.925Z,2.70
2017-10-10T15:55:48.447Z,4.60
2017-10-10T15:58:15.990Z,3.47
2017-10-10T16:00:44.240Z,2.73
2017-10-10T16:03:12.004Z,2.60
2017-10-10T16:05:39.555Z,4.60
2017-10-10T16:08:07.583Z,4.80
2017-10-10T16:10:35.505Z,3.83
2017-10-10T16:13:03.425Z,3.40
2017-10-10T16:15:31.753Z,7.13
2017-10-10T16:17:59.713Z,6.67
2017-10-10T16:20:27.330Z,4.27
2017-10-10T16:22:56.164Z,6.93
2017-10-10T16:25:24.851Z,6.53
2017-10-10T16:27:52.662Z,6.73
2017-10-10T16:30:20.994Z,5.73
2017-10-10T16:32:48.754Z,7.20
2017-10-10T16:35:16.520Z,11.70
2017-10-10T16:37:44.488Z,12.73
2017-10-10T16:40:12.371Z,9.80
2017-10-10T16:42:41.413Z,12.17
2017-10-10T16:45:09.569Z,13.13
2017-10-10T16:47:37.385Z,9.90
2017-10-10T16:50:05.116Z,12.37
2017-10-10T16:52:33.200Z,13.33
2017-10-10T16:55:00.986Z,10.27
2017-10-10T16:57:28.751Z,7.20
2017-10-10T16:59:56.737Z,4.37
2017-10-10T17:02:24.629Z,7.13
2017-10-10T17:04:53.423Z,9.47
2017-10-10T17:07:21.647Z,10.60
2017-10-10T17:09:52.586Z,14.50
2017-10-10T17:12:20.656Z,13.87
2017-10-10T17:14:48.525Z,9.43
2017-10-10T17:17:16.404Z,12.57
2017-10-10T17:19:44.186Z,8.57
2017-10-10T17:22:11.827Z,17.63
2017-10-10T17:24:39.374Z,22.80
2017-10-10T17:27:07.049Z,18.43
2017-10-10T17:29:35.744Z,31.13
2017-10-10T17:32:04.216Z,22.50
2017-10-10T17:34:32.289Z,21.17
2017-10-10T17:37:00.037Z,34.63
2017-10-10T17:39:27.596Z,14.97
2017-10-10T17:41:56.210Z,12.97
2017-10-10T17:44:23.861Z,14.57
2017-10-10T17:46:52.424Z,22.30
2017-10-10T17:49:21.579Z,6.77
2017-10-10T17:51:49.177Z,5.43
2017-10-10T17:54:16.773Z,5.97
2017-10-10T17:56:44.515Z,6.10
2017-10-10T17:59:12.112Z,7.83
2017-10-10T18:01:40.228Z,5.40
2017-10-10T18:04:08.415Z,9.10
2017-10-10T18:06:36.277Z,5.63
2017-10-10T18:09:03.905Z,6.63
2017-10-10T18:11:31.579Z,5.93
2017-10-10T18:13:59.284Z,8.70
2017-10-10T18:16:28.049Z,6.07
2017-10-10T18:18:56.089Z,5.20
2017-10-10T18:21:24.703Z,8.10
2017-10-10T18:23:52.483Z,5.70
2017-10-10T18:26:20.640Z,5.47
2017-10-10T18:28:48.414Z,4.33
2017-10-10T18:31:16.231Z,7.93
2017-10-10T18:33:44.260Z,14.67
2017-10-10T18:36:13.232Z,7.17
2017-10-10T18:38:41.098Z,7.20
2017-10-10T18:41:09.737Z,8.77
2017-10-10T18:43:37.653Z,6.03
2017-10-10T18:46:05.519Z,5.53
2017-10-10T18:48:33.663Z,17.43
2017-10-10T18:51:01.463Z,6.27
2017-10-10T18:53:30.274Z,5.10
2017-10-10T18:55:58.312Z,6.30
2017-10-10T18:58:26.077Z,7.47
2017-10-10T19:00:54.223Z,9.43
2017-10-10T19:03:22.322Z,5.80
2017-10-10T19:05:50.086Z,9.10
2017-10-10T19:08:17.952Z,9.33
2017-10-10T19:10:45.932Z,10.00
2017-10-10T19:13:13.689Z,7.50
2017-10-10T19:15:41.449Z,8.77
2017-10-10T19:18:09.527Z,5.60
2017-10-10T19:20:36.505Z,4.80
2017-10-10T19:23:04.299Z,5.87
2017-10-10T19:25:32.298Z,13.93
2017-10-10T19:28:00.268Z,5.27
2017-10-10T19:30:28.038Z,5.70
2017-10-10T19:32:56.041Z,8.30
2017-10-10T19:35:24.585Z,7.67
2017-10-10T19:37:52.348Z,3.63
2017-10-10T19:40:20.176Z,5.77
2017-10-10T19:42:47.874Z,4.00
2017-10-10T19:45:16.869Z,4.07
2017-10-10T19:47:44.643Z,5.73
2017-10-10T19:50:12.391Z,7.07
2017-10-10T19:52:40.250Z,6.13
2017-10-10T19:55:08.025Z,4.47
2017-10-10T19:57:35.893Z,4.50
2017-10-10T20:00:03.861Z,4.40
2017-10-10T20:02:31.631Z,4.67
2017-10-10T20:04:59.386Z,7.13
2017-10-10T20:07:27.258Z,4.13
2017-10-10T20:09:55.120Z,3.60
2017-10-10T20:12:22.906Z,8.80
2017-10-10T20:14:50.646Z,5.53
2017-10-10T20:17:18.452Z,5.13
2017-10-10T20:19:46.279Z,4.80
2017-10-10T20:22:14.146Z,5.70
2017-10-10T20:24:42.125Z,6.90
2017-10-10T20:27:10.697Z,5.40
2017-10-10T20:29:38.598Z,10.13
2017-10-10T20:32:06.431Z,8.13
2017-10-10T20:34:34.296Z,10.00
2017-10-10T20:37:02.054Z,5.10
2017-10-10T20:39:30.952Z,6.47
2017-10-10T20:41:58.814Z,7.03
2017-10-10T20:44:26.683Z,6.97
2017-10-10T20:46:54.751Z,9.37
2017-10-10T20:49:22.527Z,8.87
2017-10-10T20:51:50.282Z,4.60
2017-10-10T20:54:18.065Z,5.10
2017-10-10T20:56:45.710Z,6.73
2017-10-10T20:59:13.361Z,4.53
2017-10-10T21:01:41.645Z,5.93
2017-10-10T21:04:09.340Z,23.97
2017-10-10T21:06:37.080Z,5.70
2017-10-10T21:09:05.109Z,6.10
2017-10-10T21:11:32.701Z,6.87
2017-10-10T21:14:00.297Z,6.20
2017-10-10T21:16:28.186Z,7.83
2017-10-10T21:18:56.995Z,5.90
2017-10-10T21:21:24.857Z,7.03
2017-10-10T21:23:52.646Z,7.97
2017-10-10T21:26:20.412Z,5.40
2017-10-10T21:28:48.008Z,5.97
2017-10-10T21:31:15.899Z,8.23
2017-10-10T21:33:43.513Z,5.80
2017-10-10T21:36:11.126Z,5.20
2017-10-10T21:38:39.128Z,5.63
2017-10-10T21:41:06.688Z,11.40
2017-10-10T21:43:34.344Z,4.63
2017-10-10T21:46:02.119Z,13.23
2017-10-10T21:48:29.773Z,6.17
2017-10-10T21:50:57.312Z,6.43
2017-10-10T21:53:24.976Z,9.90
2017-10-10T21:55:52.656Z,6.87
2017-10-10T21:58:20.225Z,6.97
2017-10-10T22:00:47.999Z,6.63
2017-10-10T22:03:15.773Z,7.60
2017-10-10T22:05:43.356Z,8.20
2017-10-10T22:08:11.168Z,7.93
2017-10-10T22:10:38.677Z,9.63
2017-10-10T22:13:06.198Z,7.67
2017-10-10T22:15:33.747Z,10.03
2017-10-10T22:18:01.713Z,8.20
2017-10-10T22:20:29.271Z,9.63
2017-10-10T22:22:57.036Z,6.80
2017-10-10T22:25:24.595Z,7.93
2017-10-10T22:27:52.101Z,6.57
2017-10-10T22:30:19.898Z,8.40
2017-10-10T22:32:47.409Z,7.63
2017-10-10T22:35:14.918Z,8.37
2017-10-10T22:37:42.504Z,7.57
2017-10-10T22:40:10.051Z,7.10
2017-10-10T22:42:37.611Z,8.77
2017-10-10T22:45:05.169Z,11.80
2017-10-10T22:47:32.675Z,7.60
2017-10-10T22:50:00.187Z,12.57
2017-10-10T22:52:27.926Z,6.57
2017-10-10T22:54:55.459Z,7.30
2017-10-10T22:57:23.069Z,7.13
2017-10-10T22:59:50.750Z,4.43
2017-10-10T23:02:18.256Z,5.83
2017-10-10T23:04:45.770Z,10.30
2017-10-10T23:07:13.610Z,7.07
2017-10-10T23:09:41.171Z,8.30
2017-10-10T23:12:08.730Z,8.53
2017-10-10T23:14:36.492Z,6.50
2017-10-10T23:17:04.007Z,7.97
2017-10-10T23:19:31.561Z,7.03
2017-10-10T23:21:59.404Z,10.70
2017-10-10T23:24:26.922Z,7.03
2017-10-10T23:26:54.443Z,7.63
2017-10-10T23:29:22.260Z,7.20
2017-10-10T23:31:49.820Z,14.57
2017-10-10T23:34:17.377Z,11.70
2017-10-10T23:36:44.935Z,8.80
2017-10-10T23:39:12.498Z,15.20
2017-10-10T23:41:40.012Z,8.00
2017-10-10T23:44:07.713Z,12.03
2017-10-10T23:46:35.274Z,10.57
2017-10-10T23:49:02.782Z,9.40
2017-10-10T23:51:30.479Z,13.60
2017-10-10T23:53:58.054Z,10.73
2017-10-10T23:56:25.570Z,15.20
2017-10-10T23:58:53.478Z,8.70
